EW1298 Weather Reports


Display with metric or nautical units.
time (UTC)temp
F
wind
direction
speed
MPH
gust
MPH
rain 1hr
in
rain 24hr
in
rain mn
in
humidity
%
barometer
mb
20181118140133 14 243 4.0 12.0 0.00 0.01 0.00 63 1021.0
20181118134604 14 125 5.0 12.0 0.00 0.01 0.00 63 1020.8
20181118133051 14 208 5.0 17.0 0.00 0.01 0.00 63 1020.9
20181118131545 13 257 5.0 14.0 0.00 0.01 0.00 64 1020.8
20181118130134 13 189 3.0 10.0 0.00 0.01 0.00 65 1020.8
20181118124637 13 196 5.0 12.0 0.00 0.01 0.00 66 1021.0
20181118123057 13 232 5.0 11.0 0.00 0.01 0.00 67 1021.0
20181118121536 13 269 3.0 12.0 0.00 0.01 0.00 67 1021.1
20181118120046 14 230 4.0 14.0 0.00 0.01 0.00 68 1021.0
20181118114530 14 232 6.0 15.0 0.00 0.01 0.00 68 1021.2
20181118113023 14 250 5.0 19.0 0.00 0.01 0.00 66 1021.2
20181118111542 15 250 6.0 19.0 0.00 0.01 0.00 66 1021.3
20181118110024 15 261 6.0 22.0 0.00 0.01 0.00 67 1021.3
20181118104534 16 269 9.0 19.0 0.00 0.01 0.00 67 1021.4
20181118103017 16 196 5.0 15.0 0.00 0.01 0.00 68 1021.6
20181118101509 16 278 4.0 13.0 0.00 0.01 0.00 70 1021.6
20181118100018 14 274 3.0 7.0 0.00 0.01 0.00 73 1021.9
20181118094502 13 269 2.0 7.0 0.00 0.01 0.00 76 1022.1
20181118093241 12 144 0.0 4.0 0.00 0.01 0.00 79 1022.3
20181118091707 13 186 1.0 2.0 0.00 0.01 0.00 80 1022.6
20181118090159 13 186 0.0 3.0 0.00 0.01 0.00 81 1022.9
20181118084625 12 245 0.0 1.0 0.00 0.01 0.00 83 1023.1
20181118083350 12 130 3.0 6.0 0.00 0.01 0.00 84 1023.3
20181118081629 13 194 0.0 4.0 0.00 0.01 0.00 84 1023.6
20181118080110 13 135 2.0 7.0 0.00 0.01 0.00 83 1023.8
20181118074638 13 126 2.0 7.0 0.00 0.01 0.00 83 1024.2
20181118073141 13 178 3.0 6.0 0.00 0.01 0.00 83 1024.3
20181118071601 13 144 2.0 5.0 0.00 0.01 0.00 82 1024.6
20181118070103 13 152 1.0 6.0 0.00 0.01 0.00 83 1024.8
20181118064609 13 126 2.0 7.0 0.00 0.01 0.00 81 1025.0
20181118063103 13 111 3.0 7.0 0.00 0.01 0.00 81 1025.2
20181118061540 13 147 2.0 6.0 0.00 0.01 0.00 82 1025.2
20181118060107 13 208 2.0 5.0 0.00 0.01 0.00 79 1025.4
20181118054603 14 153 2.0 8.0 0.00 0.01 0.00 78 1025.5
20181118053047 14 186 4.0 8.0 0.00 0.01 0.00 78 1025.5
20181118051546 14 160 2.0 4.0 0.00 0.01 0.00 80 1025.5
20181118050034 14 248 3.0 6.0 0.00 0.01 0.00 79 1025.6
20181118044548 13 204 3.0 6.0 0.00 0.01 0.01 80 1025.6
20181118043052 13 185 3.0 7.0 0.00 0.01 0.01 80 1025.8
20181118041546 14 207 3.0 6.0 0.00 0.01 0.01 80 1026.0
20181118040038 14 200 2.0 6.0 0.00 0.01 0.01 80 1026.2
20181118034518 14 196 2.0 6.0 0.00 0.01 0.01 81 1026.4
20181118033043 13 208 3.0 6.0 0.00 0.01 0.01 82 1026.6
20181118031515 13 187 1.0 2.0 0.00 0.01 0.01 82 1026.7
20181118030033 13 186 0.0 2.0 0.00 0.01 0.01 82 1026.8
20181118024537 13 186 0.0 2.0 0.00 0.01 0.01 82 1026.7
20181118023013 14 186 0.0 2.0 0.00 0.01 0.01 81 1026.8
20181118021512 14 186 0.0 3.0 0.00 0.01 0.01 81 1026.9
20181118020005 14 244 0.0 3.0 0.00 0.01 0.01 80 1026.9
20181118014509 15 244 1.0 3.0 0.00 0.01 0.01 80 1026.9
20181118013211 15 254 1.0 3.0 0.00 0.01 0.01 79 1027.2
20181118011808 15 243 1.0 3.0 0.00 0.01 0.01 79 1027.3
20181118010140 15 209 0.0 3.0 0.00 0.01 0.01 79 1027.4
20181118004625 16 226 0.0 3.0 0.00 0.01 0.01 78 1027.4
20181118003129 16 242 1.0 4.0 0.00 0.01 0.01 78 1027.5
20181118001613 16 242 2.0 3.0 0.00 0.01 0.01 79 1027.5
20181118000150 17 253 1.0 2.0 0.00 0.01 0.01 78 1027.6
20181117234713 18 288 0.0 2.0 0.00 0.01 0.01 77 1027.5
20181117233156 18 288 0.0 2.0 0.00 0.01 0.01 75 1027.6
20181117231828 19 288 1.0 4.0 0.00 0.01 0.01 74 1027.6
20181117230136 19 300 1.0 4.0 0.00 0.01 0.01 73 1027.7
20181117224618 20 283 0.0 5.0 0.00 0.01 0.01 73 1027.7
20181117223102 20 292 0.0 5.0 0.00 0.01 0.01 72 1027.6
20181117221621 20 283 4.0 10.0 0.00 0.01 0.01 70 1027.6
20181117220043 21 325 1.0 7.0 0.00 0.01 0.01 71 1027.5
20181117214604 21 355 1.0 6.0 0.00 0.01 0.01 70 1027.5
20181117213050 21 296 1.0 8.0 0.00 0.01 0.01 70 1027.3
20181117211544 22 182 2.0 7.0 0.00 0.01 0.01 70 1027.1
20181117210042 23 325 4.0 11.0 0.00 0.01 0.01 66 1027.0
20181117204547 23 331 4.0 10.0 0.00 0.01 0.01 66 1027.0
20181117203039 23 302 2.0 8.0 0.00 0.01 0.01 70 1027.0
20181117201537 23 275 5.0 11.0 0.00 0.01 0.01 69 1027.2
20181117200059 23 323 2.0 10.0 0.00 0.01 0.01 70 1027.1
20181117194541 23 263 4.0 11.0 0.00 0.01 0.01 68 1027.1
20181117193036 24 313 4.0 8.0 0.00 0.01 0.01 69 1027.2
20181117191529 23 333 4.0 12.0 0.00 0.01 0.01 68 1027.2
20181117190036 23 355 7.0 14.0 0.00 0.01 0.01 69 1027.1
20181117184527 23 355 3.0 12.0 0.00 0.01 0.01 75 1027.0
20181117183029 24 25 2.0 12.0 0.00 0.01 0.01 73 1027.1
20181117181534 24 19 6.0 14.0 0.00 0.01 0.01 73 1027.1
20181117180022 23 279 4.0 17.0 0.00 0.01 0.01 69 1027.2
20181117174601 24 259 3.0 10.0 0.00 0.01 0.01 73 1027.2
20181117173015 23 315 5.0 12.0 0.00 0.01 0.01 74 1027.4
20181117171518 23 298 6.0 15.0 0.00 0.01 0.01 71 1027.4
20181117170014 23 279 4.0 12.0 0.00 0.01 0.01 72 1027.4
20181117164532 23 280 5.0 15.0 0.01 0.02 0.01 73 1027.5
20181117163013 23 340 4.0 12.0 0.01 0.02 0.01 76 1027.3
20181117161509 24 293 3.0 12.0 0.01 0.02 0.01 77 1027.0
20181117160008 26 306 3.0 13.0 0.01 0.02 0.01 74 1026.9
20181117154505 25 307 6.0 16.0 0.00 0.03 0.00 73 1026.7
20181117153218 24 277 9.0 14.0 0.00 0.03 0.00 78 1026.6
20181117151709 24 271 4.0 13.0 0.00 0.03 0.00 79 1026.4
20181117150246 24 343 8.0 17.0 0.00 0.03 0.00 78 1026.3
20181117144710 23 302 5.0 13.0 0.00 0.06 0.00 82 1026.1
20181117143136 23 349 4.0 11.0 0.00 0.06 0.00 83 1025.9
20181117141636 23 297 5.0 10.0 0.00 0.06 0.00 85 1025.7